createdAt,value
2022-11-19T00:02:08.111Z,6.85
2022-11-19T00:04:37.241Z,6.74
2022-11-19T00:07:05.346Z,6.65
2022-11-19T00:09:33.123Z,6.65
2022-11-19T00:12:18.368Z,6.67
2022-11-19T00:14:46.125Z,6.71
2022-11-19T00:17:13.843Z,6.72
2022-11-19T00:19:42.917Z,6.75
2022-11-19T00:22:10.584Z,6.77
2022-11-19T00:24:39.525Z,6.67
2022-11-19T00:27:07.213Z,6.38
2022-11-19T00:29:34.921Z,6.33
2022-11-19T00:32:02.618Z,6.26
2022-11-19T00:34:30.289Z,6.20
2022-11-19T00:36:59.409Z,6.12
2022-11-19T00:39:27.107Z,6.00
2022-11-19T00:41:54.825Z,6.20
2022-11-19T00:44:22.483Z,6.33
2022-11-19T00:46:50.210Z,6.44
2022-11-19T00:49:18.329Z,6.36
2022-11-19T00:51:46.477Z,6.37
2022-11-19T00:54:15.718Z,6.35
2022-11-19T00:56:43.443Z,6.31
2022-11-19T00:59:11.483Z,6.33
2022-11-19T01:01:39.579Z,6.19
2022-11-19T01:04:07.430Z,6.17
2022-11-19T01:06:35.157Z,6.11
2022-11-19T01:09:02.897Z,6.14
2022-11-19T01:11:34.411Z,6.21
2022-11-19T01:14:03.340Z,6.12
2022-11-19T01:16:33.681Z,6.09
2022-11-19T01:19:01.977Z,6.01
2022-11-19T01:21:31.398Z,6.01
2022-11-19T01:24:00.428Z,6.02
2022-11-19T01:26:29.074Z,6.13
2022-11-19T01:28:58.560Z,6.16
2022-11-19T01:31:28.139Z,6.19
2022-11-19T01:33:56.239Z,6.20
2022-11-19T01:36:25.087Z,6.11
2022-11-19T01:38:54.301Z,6.16
2022-11-19T01:41:23.590Z,6.06
2022-11-19T01:43:53.491Z,6.06
2022-11-19T01:46:24.265Z,6.04
2022-11-19T01:48:54.886Z,6.05
2022-11-19T01:51:26.053Z,6.08
2022-11-19T01:53:56.770Z,6.06
2022-11-19T01:56:24.932Z,5.93
2022-11-19T01:58:57.852Z,5.93
2022-11-19T02:01:28.876Z,5.89
2022-11-19T02:03:56.721Z,5.76
2022-11-19T02:06:24.536Z,5.68
2022-11-19T02:08:53.107Z,5.57
2022-11-19T02:11:50.441Z,5.51
2022-11-19T02:14:38.043Z,5.54
2022-11-19T02:17:19.722Z,5.51
2022-11-19T02:20:11.513Z,5.56
2022-11-19T02:23:00.707Z,5.50
2022-11-19T02:25:46.447Z,5.54
2022-11-19T02:28:33.097Z,5.60
2022-11-19T02:31:09.919Z,5.48
2022-11-19T02:33:45.730Z,5.40
2022-11-19T02:36:21.004Z,5.38
2022-11-19T02:38:53.593Z,5.32
2022-11-19T02:41:35.624Z,5.32
2022-11-19T02:44:39.296Z,5.35
2022-11-19T02:47:13.460Z,5.25
2022-11-19T02:49:44.249Z,5.12
2022-11-19T02:52:12.897Z,5.03
2022-11-19T02:54:40.784Z,5.03
2022-11-19T02:57:11.758Z,5.02
2022-11-19T02:59:59.048Z,5.14
2022-11-19T03:02:52.121Z,5.25
2022-11-19T03:05:23.145Z,5.27
2022-11-19T03:07:51.442Z,5.24
2022-11-19T03:10:21.156Z,5.29
2022-11-19T03:12:54.535Z,5.35
2022-11-19T03:15:46.765Z,5.39
2022-11-19T03:18:20.422Z,5.32
2022-11-19T03:20:53.290Z,5.31
2022-11-19T03:23:25.895Z,5.30
2022-11-19T03:25:57.810Z,5.36
2022-11-19T03:28:28.226Z,5.43
2022-11-19T03:30:59.673Z,5.37
2022-11-19T03:33:32.742Z,5.33
2022-11-19T03:36:05.097Z,5.21
2022-11-19T03:38:37.861Z,5.05
2022-11-19T03:41:08.267Z,5.12
2022-11-19T03:43:39.999Z,5.09
2022-11-19T03:46:14.296Z,5.11
2022-11-19T03:48:46.437Z,5.04
2022-11-19T03:51:17.219Z,4.90
2022-11-19T03:53:45.005Z,4.92
2022-11-19T03:56:16.249Z,5.01
2022-11-19T03:58:47.393Z,5.03
2022-11-19T04:01:15.914Z,5.06
2022-11-19T04:04:05.575Z,5.14
2022-11-19T04:06:33.429Z,5.19
2022-11-19T04:09:01.118Z,5.07
2022-11-19T04:11:28.864Z,5.05
2022-11-19T04:13:56.607Z,5.05
2022-11-19T04:16:24.377Z,5.01
2022-11-19T04:18:53.510Z,4.97
2022-11-19T04:21:21.237Z,5.00
2022-11-19T04:23:48.900Z,4.90
2022-11-19T04:26:16.670Z,4.97
2022-11-19T04:28:44.349Z,4.95
2022-11-19T04:31:16.548Z,4.97
2022-11-19T04:33:45.935Z,5.00
2022-11-19T04:36:15.003Z,5.09
2022-11-19T04:38:42.709Z,4.93
2022-11-19T04:41:10.454Z,4.80
2022-11-19T04:43:38.144Z,4.72
2022-11-19T04:46:06.035Z,4.80
2022-11-19T04:48:33.689Z,4.73
2022-11-19T04:51:01.417Z,4.53
2022-11-19T04:53:30.478Z,4.58
2022-11-19T04:55:58.166Z,4.62
2022-11-19T04:58:25.939Z,4.67
2022-11-19T05:00:53.769Z,4.59
2022-11-19T05:03:21.485Z,4.56
2022-11-19T05:05:49.218Z,4.67
2022-11-19T05:08:16.946Z,4.67
2022-11-19T05:10:46.117Z,4.60
2022-11-19T05:13:14.008Z,4.61
2022-11-19T05:15:41.764Z,4.42
2022-11-19T05:18:09.493Z,4.35
2022-11-19T05:20:37.183Z,4.31
2022-11-19T05:23:05.111Z,4.30
2022-11-19T05:25:32.942Z,4.24
2022-11-19T05:28:02.031Z,4.33
2022-11-19T05:30:29.887Z,4.38
2022-11-19T05:32:57.594Z,4.48
2022-11-19T05:35:25.401Z,4.45
2022-11-19T05:37:53.066Z,4.41
2022-11-19T05:40:20.917Z,4.39
2022-11-19T05:42:48.608Z,4.35
2022-11-19T05:45:17.814Z,4.25
2022-11-19T05:47:48.578Z,4.24
2022-11-19T05:50:16.755Z,4.26
2022-11-19T05:52:44.402Z,4.16
2022-11-19T05:55:12.052Z,4.24
2022-11-19T05:57:39.710Z,4.16
2022-11-19T06:00:08.529Z,4.19
2022-11-19T06:02:37.628Z,4.08
2022-11-19T06:05:06.179Z,4.01
2022-11-19T06:07:33.928Z,4.03
2022-11-19T06:10:01.709Z,4.11
2022-11-19T06:12:29.439Z,4.04
2022-11-19T06:14:57.148Z,4.02
2022-11-19T06:17:24.827Z,4.03
2022-11-19T06:19:53.850Z,3.97
2022-11-19T06:22:21.529Z,3.98
2022-11-19T06:24:49.168Z,4.05
2022-11-19T06:27:16.903Z,3.96
2022-11-19T06:29:44.766Z,3.98
2022-11-19T06:32:12.612Z,3.98
2022-11-19T06:34:40.331Z,4.01
2022-11-19T06:37:09.560Z,4.06
2022-11-19T06:39:37.264Z,4.09
2022-11-19T06:42:18.972Z,4.10
2022-11-19T06:44:46.646Z,3.99
2022-11-19T06:47:14.362Z,3.88
2022-11-19T06:49:42.057Z,3.93
2022-11-19T06:52:11.182Z,3.92
2022-11-19T06:54:42.881Z,3.95
2022-11-19T06:57:10.894Z,3.85
2022-11-19T06:59:39.213Z,3.82
2022-11-19T07:02:08.437Z,3.94
2022-11-19T07:04:36.169Z,4.00
2022-11-19T07:07:04.808Z,4.09
2022-11-19T07:09:33.993Z,4.10
2022-11-19T07:12:01.874Z,4.05
2022-11-19T07:14:29.572Z,3.97
2022-11-19T07:16:57.812Z,3.98
2022-11-19T07:19:25.589Z,3.98
2022-11-19T07:21:53.303Z,3.95
2022-11-19T07:24:21.182Z,4.00
2022-11-19T07:26:50.338Z,4.08
2022-11-19T07:29:18.594Z,4.13
2022-11-19T07:31:50.352Z,4.16
2022-11-19T07:34:18.934Z,4.11
2022-11-19T07:36:47.436Z,4.10
2022-11-19T07:39:15.130Z,3.94
2022-11-19T07:42:00.631Z,3.96
2022-11-19T07:44:29.619Z,3.85
2022-11-19T07:46:57.408Z,3.77
2022-11-19T07:49:26.062Z,3.86
2022-11-19T07:51:54.033Z,3.95
2022-11-19T07:54:21.850Z,3.97
2022-11-19T07:56:49.799Z,4.09
2022-11-19T07:59:17.983Z,4.13
2022-11-19T08:01:47.395Z,4.11
2022-11-19T08:04:15.120Z,4.09
2022-11-19T08:06:42.861Z,4.08
2022-11-19T08:09:10.594Z,3.93
2022-11-19T08:11:38.262Z,3.91
2022-11-19T08:14:05.949Z,3.91
2022-11-19T08:16:51.787Z,3.88
2022-11-19T08:19:21.135Z,3.87
2022-11-19T08:21:49.239Z,3.93
2022-11-19T08:24:19.632Z,3.89
2022-11-19T08:26:48.889Z,3.75
2022-11-19T08:29:18.501Z,3.78
2022-11-19T08:31:47.486Z,3.84
2022-11-19T08:34:15.818Z,3.86
2022-11-19T08:36:45.327Z,3.92
2022-11-19T08:39:13.271Z,4.10
2022-11-19T08:41:58.603Z,4.14
2022-11-19T08:44:26.398Z,3.91
2022-11-19T08:46:54.157Z,3.90
2022-11-19T08:49:21.902Z,3.72
2022-11-19T08:51:51.000Z,3.72
2022-11-19T08:54:19.290Z,3.73
2022-11-19T08:56:47.349Z,3.67
2022-11-19T08:59:15.113Z,3.71
2022-11-19T09:01:42.814Z,3.76
2022-11-19T09:04:10.602Z,3.68
2022-11-19T09:06:38.288Z,3.64
2022-11-19T09:09:07.477Z,3.63
2022-11-19T09:11:41.343Z,3.71
2022-11-19T09:14:10.861Z,3.82
2022-11-19T09:16:38.678Z,3.85
2022-11-19T09:19:06.395Z,3.89
2022-11-19T09:21:34.126Z,3.84
2022-11-19T09:24:01.860Z,3.74
2022-11-19T09:26:30.944Z,3.72
2022-11-19T09:28:58.688Z,3.72
2022-11-19T09:31:26.412Z,3.73
2022-11-19T09:33:55.573Z,3.77
2022-11-19T09:36:23.401Z,3.78
2022-11-19T09:38:51.133Z,3.62
2022-11-19T09:41:40.668Z,3.71
2022-11-19T09:44:20.766Z,3.69
2022-11-19T09:46:58.324Z,3.74
2022-11-19T09:49:29.879Z,3.88
2022-11-19T09:52:04.835Z,3.83
2022-11-19T09:54:33.205Z,3.88
2022-11-19T09:57:11.080Z,3.80
2022-11-19T09:59:41.436Z,3.65
2022-11-19T10:02:18.254Z,3.69
2022-11-19T10:04:48.267Z,3.75
2022-11-19T10:07:24.996Z,3.80
2022-11-19T10:10:12.756Z,3.93
2022-11-19T10:13:11.607Z,4.05
2022-11-19T10:15:54.421Z,4.01
2022-11-19T10:18:30.721Z,3.95
2022-11-19T10:21:03.790Z,4.01
2022-11-19T10:23:47.032Z,4.08
2022-11-19T10:26:18.061Z,4.11
2022-11-19T10:28:54.912Z,4.12
2022-11-19T10:31:30.402Z,4.08
2022-11-19T10:34:05.908Z,4.06
2022-11-19T10:36:41.242Z,3.96
2022-11-19T10:39:18.162Z,3.94
2022-11-19T10:41:53.218Z,4.12
2022-11-19T10:44:41.050Z,4.19
2022-11-19T10:47:14.572Z,4.34
2022-11-19T10:49:43.752Z,4.37
2022-11-19T10:52:20.395Z,4.43
2022-11-19T10:54:49.846Z,4.22
2022-11-19T10:57:20.602Z,4.29
2022-11-19T10:59:52.284Z,4.37
2022-11-19T11:02:28.167Z,4.42
2022-11-19T11:05:18.274Z,4.48
2022-11-19T11:07:55.033Z,4.51
2022-11-19T11:10:36.009Z,4.58
2022-11-19T11:13:32.958Z,4.74
2022-11-19T11:16:06.385Z,4.89
2022-11-19T11:18:34.558Z,4.87
2022-11-19T11:21:02.376Z,4.87
2022-11-19T11:23:31.237Z,4.77
2022-11-19T11:26:06.213Z,4.64
2022-11-19T11:28:34.584Z,4.65
2022-11-19T11:31:05.406Z,4.70
2022-11-19T11:33:36.768Z,4.71
2022-11-19T11:36:08.278Z,4.74
2022-11-19T11:38:43.373Z,4.80
2022-11-19T11:42:02.392Z,4.89
2022-11-19T11:44:04.102Z,5.03
2022-11-19T11:46:39.449Z,5.14
2022-11-19T11:49:12.721Z,5.25
2022-11-19T11:51:40.910Z,5.29
2022-11-19T11:54:18.409Z,5.33
2022-11-19T11:56:47.045Z,5.34
2022-11-19T11:59:22.624Z,5.26
2022-11-19T12:02:04.516Z,5.25
2022-11-19T12:04:32.781Z,5.30
2022-11-19T12:07:13.827Z,5.35
2022-11-19T12:09:50.412Z,5.36
2022-11-19T12:12:28.639Z,5.40
2022-11-19T12:15:01.801Z,5.50
2022-11-19T12:17:44.188Z,5.55
2022-11-19T12:20:24.860Z,5.54
2022-11-19T12:23:07.953Z,5.59
2022-11-19T12:25:41.138Z,5.54
2022-11-19T12:28:29.277Z,5.61
2022-11-19T12:31:06.526Z,5.55
2022-11-19T12:33:54.394Z,5.54
2022-11-19T12:36:31.214Z,5.55
2022-11-19T12:39:04.062Z,5.58
2022-11-19T12:41:53.415Z,5.64
2022-11-19T12:44:33.246Z,5.49
2022-11-19T12:47:10.708Z,5.46
2022-11-19T12:50:01.024Z,5.65
2022-11-19T12:52:41.508Z,5.64
2022-11-19T12:55:18.806Z,5.60
2022-11-19T12:57:54.789Z,5.38
2022-11-19T13:00:24.198Z,5.47
2022-11-19T13:03:01.384Z,5.50
2022-11-19T13:05:39.613Z,5.55
2022-11-19T13:08:15.600Z,5.47
2022-11-19T13:10:50.667Z,5.57
2022-11-19T13:13:23.987Z,5.61
2022-11-19T13:15:59.983Z,5.55
2022-11-19T13:18:32.021Z,5.54
2022-11-19T13:21:04.902Z,5.63
2022-11-19T13:23:38.381Z,5.68
2022-11-19T13:26:12.068Z,5.57
2022-11-19T13:28:45.837Z,5.53
2022-11-19T13:31:19.905Z,5.45
2022-11-19T13:33:52.850Z,5.51
2022-11-19T13:36:28.864Z,5.63
2022-11-19T13:39:02.229Z,5.68
2022-11-19T13:41:34.260Z,5.52
2022-11-19T13:44:20.053Z,5.58
2022-11-19T13:46:51.393Z,5.67
2022-11-19T13:49:24.172Z,5.66
2022-11-19T13:51:57.864Z,5.64
2022-11-19T13:54:28.348Z,5.70
2022-11-19T13:57:00.335Z,5.65
2022-11-19T13:59:36.769Z,5.66
2022-11-19T14:02:42.328Z,5.61
2022-11-19T14:05:36.609Z,5.67
2022-11-19T14:08:24.818Z,5.71
2022-11-19T14:11:09.299Z,5.74
2022-11-19T14:13:55.275Z,5.82
2022-11-19T14:16:52.270Z,5.76
2022-11-19T14:19:37.654Z,5.71
2022-11-19T14:22:50.202Z,5.61
2022-11-19T14:26:02.596Z,5.42
2022-11-19T14:28:47.991Z,5.38
2022-11-19T14:31:16.511Z,5.32
2022-11-19T14:34:01.274Z,5.26
2022-11-19T14:36:48.480Z,5.29
2022-11-19T14:39:23.198Z,5.30
2022-11-19T14:42:13.644Z,5.20
2022-11-19T14:44:41.858Z,5.20
2022-11-19T14:47:33.445Z,5.27
2022-11-19T14:50:04.061Z,5.28
2022-11-19T14:52:34.896Z,5.18
2022-11-19T14:55:06.727Z,5.17
2022-11-19T14:57:38.755Z,5.09
2022-11-19T15:00:27.032Z,5.01
2022-11-19T15:02:55.437Z,4.90
2022-11-19T15:05:29.118Z,4.85
2022-11-19T15:08:31.051Z,4.80
2022-11-19T15:11:08.115Z,4.77
2022-11-19T15:13:39.184Z,4.71
2022-11-19T15:16:13.266Z,4.67
2022-11-19T15:19:08.959Z,4.62
2022-11-19T15:21:54.099Z,4.60
2022-11-19T15:24:36.016Z,4.49
2022-11-19T15:27:15.897Z,4.44
2022-11-19T15:30:05.526Z,4.31
2022-11-19T15:32:46.671Z,4.14
2022-11-19T15:35:34.220Z,3.96
2022-11-19T15:38:09.393Z,3.88
2022-11-19T15:40:40.666Z,3.83
2022-11-19T15:43:17.969Z,3.75
2022-11-19T15:45:52.331Z,3.77
2022-11-19T15:48:24.831Z,3.75
2022-11-19T15:50:53.220Z,3.72
2022-11-19T15:53:23.063Z,3.75
2022-11-19T15:55:54.676Z,3.75
2022-11-19T15:58:36.252Z,3.79
2022-11-19T16:01:06.867Z,3.80
2022-11-19T16:03:38.147Z,3.75
2022-11-19T16:06:10.208Z,3.76
2022-11-19T16:08:39.137Z,3.69
2022-11-19T16:11:24.388Z,3.63
2022-11-19T16:14:10.734Z,3.65
2022-11-19T16:16:58.312Z,3.61
2022-11-19T16:19:25.969Z,3.64
2022-11-19T16:21:58.035Z,3.63
2022-11-19T16:24:45.984Z,3.60
2022-11-19T16:27:20.945Z,3.53
2022-11-19T16:29:48.738Z,3.55
2022-11-19T16:32:19.876Z,3.57
2022-11-19T16:34:47.840Z,3.66
2022-11-19T16:37:17.074Z,3.72
2022-11-19T16:39:51.396Z,3.75
2022-11-19T16:42:26.403Z,3.85
2022-11-19T16:44:56.346Z,3.97
2022-11-19T16:47:30.878Z,3.99
2022-11-19T16:50:07.797Z,3.98
2022-11-19T16:52:40.294Z,4.04
2022-11-19T16:55:28.869Z,4.05
2022-11-19T16:57:58.769Z,4.06
2022-11-19T17:00:31.544Z,4.09
2022-11-19T17:03:02.123Z,4.04
2022-11-19T17:05:29.825Z,4.05
2022-11-19T17:08:06.861Z,4.16
2022-11-19T17:10:35.420Z,4.15
2022-11-19T17:13:16.044Z,4.24
2022-11-19T17:15:45.168Z,4.18
2022-11-19T17:18:20.161Z,4.19
2022-11-19T17:20:52.548Z,4.15
2022-11-19T17:23:22.301Z,3.99
2022-11-19T17:25:52.633Z,3.91
2022-11-19T17:28:22.246Z,3.85
2022-11-19T17:30:50.639Z,3.82
2022-11-19T17:33:24.322Z,3.84
2022-11-19T17:35:52.961Z,3.72
2022-11-19T17:38:27.120Z,3.76
2022-11-19T17:40:57.602Z,3.71
2022-11-19T17:43:48.150Z,3.62
2022-11-19T17:46:15.922Z,3.43
2022-11-19T17:48:46.414Z,3.42
2022-11-19T17:51:16.501Z,3.41
2022-11-19T17:53:44.304Z,3.42
2022-11-19T17:56:20.283Z,3.42
2022-11-19T17:58:48.189Z,3.37
2022-11-19T18:01:20.217Z,3.33
2022-11-19T18:03:55.234Z,3.28
2022-11-19T18:06:23.031Z,3.28
2022-11-19T18:08:50.786Z,3.25
2022-11-19T18:11:20.262Z,3.18
2022-11-19T18:13:50.879Z,3.14
2022-11-19T18:16:21.596Z,3.10
2022-11-19T18:18:50.776Z,3.02
2022-11-19T18:21:21.197Z,3.02
2022-11-19T18:23:50.592Z,3.02
2022-11-19T18:26:19.837Z,2.99
2022-11-19T18:28:49.096Z,2.84
2022-11-19T18:31:20.445Z,2.81
2022-11-19T18:33:49.197Z,2.79
2022-11-19T18:36:19.033Z,2.76
2022-11-19T18:38:46.978Z,2.74
2022-11-19T18:41:16.117Z,2.74
2022-11-19T18:44:01.169Z,2.73
2022-11-19T18:46:28.856Z,2.70
2022-11-19T18:48:56.733Z,2.65
2022-11-19T18:51:27.517Z,2.57
2022-11-19T18:53:55.226Z,2.57
2022-11-19T18:56:22.976Z,2.46
2022-11-19T18:58:50.782Z,2.44
2022-11-19T19:01:18.761Z,2.50
2022-11-19T19:03:46.573Z,2.56
2022-11-19T19:06:15.732Z,2.57
2022-11-19T19:08:49.857Z,2.59
2022-11-19T19:11:35.198Z,2.61
2022-11-19T19:14:07.853Z,2.60
2022-11-19T19:16:36.307Z,2.53
2022-11-19T19:19:07.211Z,2.48
2022-11-19T19:21:35.361Z,2.42
2022-11-19T19:24:07.207Z,2.38
2022-11-19T19:26:35.002Z,2.41
2022-11-19T19:29:03.276Z,2.42
2022-11-19T19:31:31.333Z,2.38
2022-11-19T19:33:59.415Z,2.36
2022-11-19T19:36:27.846Z,2.36
2022-11-19T19:38:55.833Z,2.35
2022-11-19T19:41:27.076Z,2.35
2022-11-19T19:43:57.254Z,2.25
2022-11-19T19:46:25.522Z,2.24
2022-11-19T19:48:55.044Z,2.27
2022-11-19T19:51:24.724Z,2.21
2022-11-19T19:53:53.036Z,2.20
2022-11-19T19:56:23.252Z,2.20
2022-11-19T19:58:53.124Z,2.17
2022-11-19T20:01:24.201Z,2.19
2022-11-19T20:03:54.693Z,2.18
2022-11-19T20:06:24.473Z,2.15
2022-11-19T20:08:52.422Z,2.07
2022-11-19T20:11:21.670Z,2.03
2022-11-19T20:13:49.841Z,2.00
2022-11-19T20:16:20.918Z,1.98
2022-11-19T20:18:50.832Z,2.01
2022-11-19T20:21:21.363Z,2.01
2022-11-19T20:23:49.399Z,1.99
2022-11-19T20:26:28.539Z,2.00
2022-11-19T20:28:57.660Z,2.00
2022-11-19T20:31:29.008Z,1.98
2022-11-19T20:33:58.785Z,1.92
2022-11-19T20:36:29.113Z,1.93
2022-11-19T20:38:58.907Z,1.96
2022-11-19T20:41:45.718Z,1.93
2022-11-19T20:44:21.630Z,1.92
2022-11-19T20:46:53.317Z,1.89
2022-11-19T20:49:23.708Z,1.85
2022-11-19T20:51:52.904Z,1.85
2022-11-19T20:54:21.419Z,1.85
2022-11-19T20:56:49.951Z,1.84
2022-11-19T20:59:20.146Z,1.85
2022-11-19T21:01:49.465Z,1.86
2022-11-19T21:04:19.434Z,1.87
2022-11-19T21:06:47.717Z,1.77
2022-11-19T21:09:16.419Z,1.74
2022-11-19T21:11:44.270Z,1.73
2022-11-19T21:14:12.263Z,1.73
2022-11-19T21:16:40.141Z,1.68
2022-11-19T21:19:08.096Z,1.66
2022-11-19T21:21:37.378Z,1.66
2022-11-19T21:24:05.767Z,1.66
2022-11-19T21:26:33.762Z,1.67
2022-11-19T21:29:01.656Z,1.64
2022-11-19T21:31:39.574Z,1.62
2022-11-19T21:34:08.449Z,1.61
2022-11-19T21:36:38.159Z,1.59
2022-11-19T21:39:07.297Z,1.61
2022-11-19T21:41:35.228Z,1.57
2022-11-19T21:44:03.815Z,1.56
2022-11-19T21:46:32.019Z,1.58
2022-11-19T21:49:00.194Z,1.52
2022-11-19T21:51:28.097Z,1.53
2022-11-19T21:53:58.475Z,1.52
2022-11-19T21:56:27.971Z,1.51
2022-11-19T22:02:15.700Z,1.49
2022-11-19T22:04:43.582Z,1.48
2022-11-19T22:07:11.552Z,1.47
2022-11-19T22:09:40.810Z,1.44
2022-11-19T22:12:08.773Z,1.33
2022-11-19T22:14:36.544Z,1.15
2022-11-19T22:17:04.547Z,1.19
2022-11-19T22:19:32.409Z,1.21
2022-11-19T22:22:00.311Z,1.20
2022-11-19T22:24:28.116Z,1.23
2022-11-19T22:26:57.415Z,1.25
2022-11-19T22:29:25.505Z,1.26
2022-11-19T22:31:53.329Z,1.23
2022-11-19T22:34:21.149Z,1.23
2022-11-19T22:36:48.987Z,1.13
2022-11-19T22:39:18.522Z,1.11
2022-11-19T22:41:46.587Z,1.08
2022-11-19T22:44:18.429Z,1.07
2022-11-19T22:46:46.329Z,1.07
2022-11-19T22:49:14.262Z,1.08
2022-11-19T22:51:42.196Z,1.05
2022-11-19T22:54:11.745Z,1.04
2022-11-19T22:56:39.532Z,1.01
2022-11-19T22:59:07.247Z,1.02
2022-11-19T23:01:37.117Z,1.03
2022-11-19T23:04:07.683Z,1.01
2022-11-19T23:06:36.459Z,0.99
2022-11-19T23:09:05.020Z,0.97
2022-11-19T23:11:50.711Z,0.97
2022-11-19T23:14:20.455Z,0.97
2022-11-19T23:16:49.863Z,0.95
2022-11-19T23:19:19.373Z,0.90
2022-11-19T23:21:47.828Z,0.86
2022-11-19T23:24:15.810Z,0.89
2022-11-19T23:26:43.541Z,0.91
2022-11-19T23:29:11.252Z,0.88
2022-11-19T23:31:40.147Z,0.86
2022-11-19T23:34:09.702Z,0.85
2022-11-19T23:36:39.553Z,0.84
2022-11-19T23:39:09.902Z,0.83
2022-11-19T23:41:37.747Z,0.81
2022-11-19T23:44:05.636Z,0.79
2022-11-19T23:46:35.328Z,0.81
2022-11-19T23:49:03.547Z,0.80
2022-11-19T23:51:34.558Z,0.76
2022-11-19T23:54:02.548Z,0.76
2022-11-19T23:56:32.128Z,0.73
2022-11-19T23:59:02.106Z,0.72
